createdAt,value
2023-02-14T00:01:39.299Z,14.57
2023-02-14T00:04:08.198Z,14.58
2023-02-14T00:06:39.938Z,14.60
2023-02-14T00:09:14.913Z,14.67
2023-02-14T00:11:49.940Z,14.76
2023-02-14T00:14:38.221Z,14.81
2023-02-14T00:17:07.035Z,14.82
2023-02-14T00:19:37.308Z,14.81
2023-02-14T00:22:06.425Z,14.81
2023-02-14T00:24:35.521Z,14.79
2023-02-14T00:27:04.606Z,14.78
2023-02-14T00:29:33.668Z,14.78
2023-02-14T00:32:03.349Z,14.76
2023-02-14T00:34:33.636Z,14.74
2023-02-14T00:37:19.045Z,14.71
2023-02-14T00:39:48.019Z,14.68
2023-02-14T00:42:16.759Z,14.74
2023-02-14T00:44:47.487Z,14.83
2023-02-14T00:47:16.233Z,14.80
2023-02-14T00:49:44.725Z,14.75
2023-02-14T00:52:12.935Z,14.76
2023-02-14T00:54:42.126Z,14.79
2023-02-14T00:57:10.568Z,14.80
2023-02-14T00:59:39.816Z,14.81
2023-02-14T01:02:08.672Z,14.82
2023-02-14T01:04:37.102Z,14.77
2023-02-14T01:07:06.106Z,14.70
2023-02-14T01:09:34.165Z,14.67
2023-02-14T01:12:04.230Z,14.67
2023-02-14T01:14:32.399Z,14.78
2023-02-14T01:17:02.656Z,14.91
2023-02-14T01:19:31.454Z,14.92
2023-02-14T01:22:01.639Z,14.88
2023-02-14T01:24:30.353Z,14.88
2023-02-14T01:27:01.802Z,14.88
2023-02-14T01:29:30.541Z,14.86
2023-02-14T01:31:58.677Z,14.82
2023-02-14T01:34:48.087Z,14.75
2023-02-14T01:37:16.389Z,14.71
2023-02-14T01:39:45.232Z,14.72
2023-02-14T01:42:16.217Z,14.68
2023-02-14T01:44:47.831Z,14.64
2023-02-14T01:47:17.000Z,14.72
2023-02-14T01:49:53.100Z,14.80
2023-02-14T01:52:35.497Z,14.82
2023-02-14T01:55:09.409Z,14.86
2023-02-14T01:57:38.851Z,14.88
2023-02-14T02:00:26.419Z,14.90
2023-02-14T02:02:56.269Z,14.89
2023-02-14T02:05:24.587Z,14.87
2023-02-14T02:07:52.993Z,14.85
2023-02-14T02:10:21.501Z,14.83
2023-02-14T02:12:51.620Z,14.78
2023-02-14T02:15:22.011Z,14.76
2023-02-14T02:18:07.352Z,14.76
2023-02-14T02:20:53.998Z,14.74
2023-02-14T02:23:39.841Z,14.72
2023-02-14T02:26:27.136Z,14.81
2023-02-14T02:29:16.302Z,14.82
2023-02-14T02:32:21.956Z,14.79
2023-02-14T02:35:20.725Z,14.83
2023-02-14T02:38:14.480Z,14.81
2023-02-14T02:41:24.464Z,14.79
2023-02-14T02:44:03.441Z,14.75
2023-02-14T02:46:48.143Z,14.70
2023-02-14T02:49:56.742Z,14.66
2023-02-14T02:53:13.273Z,14.58
2023-02-14T02:56:38.272Z,14.46
2023-02-14T02:59:18.335Z,14.38
2023-02-14T03:01:53.853Z,14.41
2023-02-14T03:04:41.716Z,14.44
2023-02-14T03:07:28.438Z,14.41
2023-02-14T03:14:30.169Z,14.36
2023-02-14T03:17:05.557Z,14.32
2023-02-14T03:20:16.031Z,14.26
2023-02-14T03:22:50.215Z,14.23
2023-02-14T03:25:25.618Z,14.20
2023-02-14T03:28:32.499Z,14.18
2023-02-14T03:31:20.983Z,14.14
2023-02-14T03:34:09.626Z,14.23
2023-02-14T03:36:41.275Z,14.21
2023-02-14T03:39:14.336Z,14.12
2023-02-14T03:41:50.270Z,14.01
2023-02-14T03:44:20.200Z,13.90
2023-02-14T03:46:51.734Z,13.80
2023-02-14T03:49:22.470Z,13.71
2023-02-14T03:51:51.436Z,13.67
2023-02-14T03:54:19.540Z,13.60
2023-02-14T03:56:53.329Z,13.49
2023-02-14T03:59:25.692Z,13.37
2023-02-14T04:02:07.696Z,13.30
2023-02-14T04:04:39.836Z,13.27
2023-02-14T04:07:17.374Z,13.34
2023-02-14T04:09:49.624Z,13.43
2023-02-14T04:12:32.376Z,13.40
2023-02-14T04:15:07.618Z,13.39
2023-02-14T04:18:02.170Z,13.39
2023-02-14T04:20:34.590Z,13.40
2023-02-14T04:23:04.998Z,13.43
2023-02-14T04:25:36.343Z,13.46
2023-02-14T04:28:06.220Z,13.61
2023-02-14T04:30:37.253Z,13.75
2023-02-14T04:33:11.036Z,13.77
2023-02-14T04:35:42.288Z,13.77
2023-02-14T04:38:12.608Z,13.77
2023-02-14T04:40:43.835Z,13.75
2023-02-14T04:43:15.613Z,13.72
2023-02-14T04:45:47.678Z,13.66
2023-02-14T04:48:19.167Z,13.65
2023-02-14T04:50:56.665Z,13.69
2023-02-14T04:53:27.705Z,13.70
2023-02-14T04:55:58.504Z,13.68
2023-02-14T04:58:29.718Z,13.62
2023-02-14T05:01:00.582Z,13.58
2023-02-14T05:11:08.458Z,13.32
2023-02-14T05:13:36.777Z,13.20
2023-02-14T05:16:08.697Z,13.16
2023-02-14T05:18:36.831Z,13.15
2023-02-14T05:21:05.565Z,13.11
2023-02-14T05:23:33.519Z,13.08
2023-02-14T05:26:01.546Z,13.15
2023-02-14T05:28:30.024Z,13.20
2023-02-14T05:30:59.084Z,13.18
2023-02-14T05:33:28.434Z,13.16
2023-02-14T05:35:59.954Z,13.12
2023-02-14T05:38:28.299Z,13.10
2023-02-14T05:40:56.998Z,13.08
2023-02-14T05:43:26.408Z,13.10
2023-02-14T05:45:58.093Z,13.24
2023-02-14T05:48:26.286Z,13.38
2023-02-14T05:50:54.524Z,13.41
2023-02-14T05:53:23.810Z,13.39
2023-02-14T05:55:52.013Z,13.38
2023-02-14T05:58:20.354Z,13.36
2023-02-14T06:00:48.557Z,13.38
2023-02-14T06:03:18.511Z,13.39
2023-02-14T06:05:47.195Z,13.44
2023-02-14T06:08:15.323Z,13.59
2023-02-14T06:10:43.523Z,13.74
2023-02-14T06:13:12.000Z,13.77
2023-02-14T06:15:41.173Z,13.75
2023-02-14T06:18:09.337Z,13.73
2023-02-14T06:20:37.812Z,13.75
2023-02-14T06:23:06.413Z,13.79
2023-02-14T06:25:36.980Z,13.81
2023-02-14T06:28:10.642Z,13.81
2023-02-14T06:30:40.641Z,13.82
2023-02-14T06:33:09.072Z,13.80
2023-02-14T06:35:37.478Z,13.87
2023-02-14T06:38:05.634Z,14.05
2023-02-14T06:40:33.682Z,14.11
2023-02-14T06:43:01.965Z,14.13
2023-02-14T06:45:30.112Z,14.14
2023-02-14T06:48:00.180Z,14.09
2023-02-14T06:50:28.568Z,14.03
2023-02-14T06:52:57.044Z,14.01
2023-02-14T06:55:25.519Z,14.02
2023-02-14T06:57:56.182Z,14.01
2023-02-14T07:00:25.145Z,14.00
2023-02-14T07:02:53.864Z,14.00
2023-02-14T07:05:22.132Z,14.01
2023-02-14T07:07:53.980Z,14.04
2023-02-14T07:10:22.354Z,14.06
2023-02-14T07:12:50.717Z,14.03
2023-02-14T07:15:19.124Z,13.96
2023-02-14T07:17:47.289Z,13.89
2023-02-14T07:20:19.259Z,13.83
2023-02-14T07:22:47.724Z,13.77
2023-02-14T07:25:16.187Z,13.78
2023-02-14T07:27:44.576Z,13.94
2023-02-14T07:30:13.953Z,14.12
2023-02-14T07:32:42.183Z,14.21
2023-02-14T07:35:10.938Z,14.33
2023-02-14T07:37:39.441Z,14.44
2023-02-14T07:40:14.339Z,14.53
2023-02-14T07:42:43.780Z,14.67
2023-02-14T07:45:21.894Z,14.76
2023-02-14T07:47:51.684Z,14.74
2023-02-14T07:50:20.763Z,14.75
2023-02-14T07:52:49.105Z,14.79
2023-02-14T07:55:17.541Z,14.77
2023-02-14T07:57:48.313Z,14.66
2023-02-14T08:00:17.052Z,14.61
2023-02-14T08:02:45.494Z,14.55
2023-02-14T08:05:15.114Z,14.52
2023-02-14T08:07:44.441Z,14.48
2023-02-14T08:10:13.251Z,14.53
2023-02-14T08:13:00.437Z,14.61
2023-02-14T08:15:51.505Z,14.63
2023-02-14T08:18:21.120Z,14.55
2023-02-14T08:20:50.011Z,14.47
2023-02-14T08:23:18.950Z,14.45
2023-02-14T08:25:51.900Z,14.50
2023-02-14T08:28:23.241Z,14.59
2023-02-14T08:30:52.688Z,14.68
2023-02-14T08:33:20.820Z,14.74
2023-02-14T08:35:49.780Z,14.74
2023-02-14T08:38:17.919Z,14.74
2023-02-14T08:40:46.382Z,14.71
2023-02-14T08:43:14.828Z,14.62
2023-02-14T08:46:55.364Z,13.20
2023-02-14T08:49:24.227Z,14.21
2023-02-14T08:51:52.341Z,14.36
2023-02-14T08:54:20.773Z,14.44
2023-02-14T08:56:48.913Z,14.43
2023-02-14T08:59:17.241Z,14.38
2023-02-14T09:01:46.321Z,14.38
2023-02-14T09:04:19.015Z,14.43
2023-02-14T09:06:47.647Z,14.53
2023-02-14T09:09:17.629Z,14.58
2023-02-14T09:11:47.023Z,14.65
2023-02-14T09:14:23.692Z,14.75
2023-02-14T09:16:53.965Z,14.81
2023-02-14T09:19:22.148Z,14.83
2023-02-14T09:21:50.282Z,14.83
2023-02-14T09:24:39.089Z,14.82
2023-02-14T09:27:07.508Z,14.75
2023-02-14T09:29:36.388Z,14.69
2023-02-14T09:32:06.895Z,14.63
2023-02-14T09:34:36.737Z,14.55
2023-02-14T09:37:06.469Z,14.42
2023-02-14T09:39:36.596Z,14.31
2023-02-14T09:42:46.525Z,14.30
2023-02-14T09:45:41.162Z,14.35
2023-02-14T09:48:26.095Z,14.28
2023-02-14T09:51:01.370Z,14.21
2023-02-14T09:53:35.667Z,14.13
2023-02-14T09:56:08.270Z,14.11
2023-02-14T09:58:59.286Z,14.11
2023-02-14T10:01:32.806Z,14.12
2023-02-14T10:04:01.369Z,14.09
2023-02-14T10:06:39.056Z,14.06
2023-02-14T10:09:33.396Z,14.06
2023-02-14T10:12:01.591Z,14.13
2023-02-14T10:14:31.023Z,14.10
2023-02-14T10:17:12.722Z,14.06
2023-02-14T10:19:43.436Z,14.05
2023-02-14T10:22:14.698Z,14.16
2023-02-14T10:24:48.983Z,14.33
2023-02-14T10:27:31.850Z,14.50
2023-02-14T10:30:00.576Z,14.62
2023-02-14T10:32:46.922Z,14.72
2023-02-14T10:35:48.814Z,14.81
2023-02-14T10:38:47.575Z,14.87
2023-02-14T10:41:40.351Z,14.87
2023-02-14T10:44:19.744Z,14.87
2023-02-14T10:46:53.396Z,14.90
2023-02-14T10:49:30.582Z,14.87
2023-02-14T10:52:17.962Z,14.75
2023-02-14T10:54:52.123Z,14.65
2023-02-14T11:00:27.772Z,13.43
2023-02-14T11:02:58.531Z,14.68
2023-02-14T11:05:28.594Z,14.83
2023-02-14T11:07:58.360Z,14.94
2023-02-14T11:10:27.680Z,15.00
2023-02-14T11:12:54.566Z,15.01
2023-02-14T11:15:24.220Z,14.95
2023-02-14T11:18:10.214Z,14.83
2023-02-14T11:20:37.361Z,14.74
2023-02-14T11:23:18.420Z,14.68
2023-02-14T11:25:50.159Z,14.59
2023-02-14T11:28:17.255Z,14.52
2023-02-14T11:30:45.175Z,14.48
2023-02-14T11:33:28.266Z,14.47
2023-02-14T11:35:55.168Z,14.48
2023-02-14T11:38:29.936Z,14.51
2023-02-14T11:40:57.141Z,14.53
2023-02-14T11:43:36.637Z,14.47
2023-02-14T11:46:12.357Z,14.40
2023-02-14T11:49:00.845Z,14.41
2023-02-14T11:51:52.446Z,14.42
2023-02-14T11:54:35.571Z,14.47
2023-02-14T11:57:13.074Z,14.56
2023-02-14T11:59:44.793Z,14.53
2023-02-14T12:02:37.623Z,14.52
2023-02-14T12:05:15.608Z,14.61
2023-02-14T12:07:43.106Z,14.72
2023-02-14T12:10:15.128Z,14.72
2023-02-14T12:12:55.523Z,14.71
2023-02-14T12:15:33.947Z,14.71
2023-02-14T12:18:36.987Z,14.73
2023-02-14T12:21:19.392Z,14.80
2023-02-14T12:24:11.972Z,14.91
2023-02-14T12:26:54.864Z,14.93
2023-02-14T12:29:35.948Z,14.93
2023-02-14T12:32:18.422Z,14.99
2023-02-14T12:34:46.853Z,15.03
2023-02-14T12:37:19.425Z,15.00
2023-02-14T12:40:20.995Z,14.95
2023-02-14T12:43:12.364Z,14.87
2023-02-14T12:46:17.071Z,14.74
2023-02-14T12:48:50.871Z,14.66
2023-02-14T12:51:29.907Z,14.59
2023-02-14T12:54:02.555Z,14.54
2023-02-14T13:05:19.390Z,14.34
2023-02-14T13:08:23.181Z,14.32
2023-02-14T13:11:18.002Z,14.25
2023-02-14T13:14:38.007Z,14.14
2023-02-14T13:17:11.148Z,13.95
2023-02-14T13:20:17.362Z,13.85
2023-02-14T13:22:45.816Z,13.84
2023-02-14T13:25:41.027Z,13.85
2023-02-14T13:28:13.045Z,13.89
2023-02-14T13:30:43.289Z,13.92
2023-02-14T13:33:25.294Z,13.94
2023-02-14T13:35:56.193Z,13.97
2023-02-14T13:38:24.854Z,13.94
2023-02-14T13:41:01.360Z,13.83
2023-02-14T13:43:48.482Z,13.70
2023-02-14T13:46:38.265Z,13.67
2023-02-14T13:49:24.553Z,13.63
2023-02-14T13:51:55.063Z,13.55
2023-02-14T13:54:41.417Z,13.41
2023-02-14T13:57:34.343Z,13.33
2023-02-14T14:00:19.044Z,13.32
2023-02-14T14:02:47.977Z,13.32
2023-02-14T14:05:35.543Z,13.32
2023-02-14T14:08:28.387Z,13.26
2023-02-14T14:11:04.271Z,13.22
2023-02-14T14:13:42.099Z,13.20
2023-02-14T14:16:29.105Z,13.22
2023-02-14T14:18:58.794Z,13.14
2023-02-14T14:22:05.216Z,13.05
2023-02-14T14:24:41.496Z,13.04
2023-02-14T14:27:17.825Z,13.04
2023-02-14T14:29:56.170Z,12.97
2023-02-14T14:32:27.290Z,12.93
2023-02-14T14:35:01.441Z,12.86
2023-02-14T14:37:32.480Z,12.85
2023-02-14T14:40:03.148Z,12.85
2023-02-14T14:42:36.981Z,12.88
2023-02-14T14:45:08.293Z,12.90
2023-02-14T14:47:44.544Z,12.88
2023-02-14T14:50:24.903Z,12.84
2023-02-14T14:52:57.937Z,12.76
2023-02-14T14:55:30.907Z,12.70
2023-02-14T14:58:00.956Z,12.65
2023-02-14T15:00:31.646Z,12.58
2023-02-14T15:03:18.570Z,12.42
2023-02-14T15:05:49.495Z,12.37
2023-02-14T15:08:21.303Z,12.22
2023-02-14T15:10:54.580Z,12.17
2023-02-14T15:13:49.731Z,12.11
2023-02-14T15:16:22.655Z,12.04
2023-02-14T15:18:52.458Z,12.00
2023-02-14T15:21:20.793Z,11.95
2023-02-14T15:23:50.553Z,11.88
2023-02-14T15:26:31.663Z,11.86
2023-02-14T15:29:02.965Z,11.87
2023-02-14T15:31:35.257Z,11.86
2023-02-14T15:34:05.396Z,11.86
2023-02-14T15:36:34.360Z,11.85
2023-02-14T15:39:05.024Z,11.86
2023-02-14T15:41:36.247Z,11.86
2023-02-14T15:44:05.031Z,11.81
2023-02-14T15:46:38.130Z,11.79
2023-02-14T15:49:09.239Z,11.79
2023-02-14T15:51:37.570Z,11.77
2023-02-14T15:54:08.401Z,11.73
2023-02-14T15:56:41.998Z,11.72
2023-02-14T15:59:17.326Z,11.70
2023-02-14T16:02:02.618Z,11.68
2023-02-14T16:04:32.816Z,11.69
2023-02-14T16:07:24.984Z,11.66
2023-02-14T16:10:25.085Z,11.71
2023-02-14T16:12:57.412Z,11.74
2023-02-14T16:15:28.250Z,11.76
2023-02-14T16:17:56.773Z,11.80
2023-02-14T16:20:34.349Z,11.78
2023-02-14T16:23:19.444Z,11.74
2023-02-14T16:25:47.960Z,11.76
2023-02-14T16:28:16.436Z,11.71
2023-02-14T16:30:46.167Z,11.70
2023-02-14T16:33:21.161Z,11.67
2023-02-14T16:35:50.061Z,11.66
2023-02-14T16:38:19.524Z,11.64
2023-02-14T16:40:52.835Z,11.62
2023-02-14T16:43:22.055Z,11.67
2023-02-14T16:45:50.486Z,11.69
2023-02-14T16:48:18.754Z,11.66
2023-02-14T16:50:47.720Z,11.59
2023-02-14T16:53:36.366Z,11.58
2023-02-14T16:56:04.944Z,11.55
2023-02-14T16:58:34.989Z,11.50
2023-02-14T17:01:04.076Z,11.49
2023-02-14T17:03:32.948Z,11.47
2023-02-14T17:06:01.081Z,11.47
2023-02-14T17:08:29.402Z,11.44
2023-02-14T17:10:58.204Z,11.45
2023-02-14T17:13:27.290Z,11.43
2023-02-14T17:15:56.324Z,11.43
2023-02-14T17:18:25.021Z,11.45
2023-02-14T17:20:54.284Z,11.46
2023-02-14T17:23:24.505Z,11.47
2023-02-14T17:25:52.822Z,11.42
2023-02-14T17:28:21.568Z,11.38
2023-02-14T17:30:49.838Z,11.37
2023-02-14T17:33:20.178Z,11.37
2023-02-14T17:35:49.474Z,11.38
2023-02-14T17:38:18.708Z,11.38
2023-02-14T17:40:46.850Z,11.31
2023-02-14T17:43:15.592Z,11.27
2023-02-14T17:45:43.916Z,11.27
2023-02-14T17:48:12.893Z,11.28
2023-02-14T17:50:41.036Z,11.30
2023-02-14T17:53:09.669Z,11.32
2023-02-14T17:55:39.510Z,11.33
2023-02-14T17:58:07.681Z,11.29
2023-02-14T18:00:36.029Z,11.24
2023-02-14T18:03:04.266Z,11.19
2023-02-14T18:05:36.633Z,11.13
2023-02-14T18:08:06.331Z,11.06
2023-02-14T18:10:34.993Z,11.01
2023-02-14T18:13:03.489Z,10.98
2023-02-14T18:15:32.339Z,10.97
2023-02-14T18:18:01.015Z,10.94
2023-02-14T18:20:30.148Z,10.95
2023-02-14T18:22:58.475Z,10.98
2023-02-14T18:25:26.715Z,11.03
2023-02-14T18:27:55.090Z,11.06
2023-02-14T18:30:24.250Z,11.09
2023-02-14T18:32:53.796Z,11.12
2023-02-14T18:35:21.932Z,11.17
2023-02-14T18:37:50.564Z,11.23
2023-02-14T18:40:20.775Z,11.32
2023-02-14T18:42:49.248Z,11.36
2023-02-14T18:45:17.741Z,11.37
2023-02-14T18:47:45.918Z,11.42
2023-02-14T18:50:14.219Z,11.48
2023-02-14T18:52:42.912Z,11.51
2023-02-14T18:55:13.618Z,11.54
2023-02-14T18:57:42.108Z,11.56
2023-02-14T19:00:12.181Z,11.53
2023-02-14T19:02:40.545Z,11.53
2023-02-14T19:05:09.312Z,11.54
2023-02-14T19:07:38.301Z,11.54
2023-02-14T19:10:07.606Z,11.57
2023-02-14T19:12:36.070Z,11.55
2023-02-14T19:15:06.284Z,11.55
2023-02-14T19:17:39.117Z,11.53
2023-02-14T19:20:09.106Z,11.54
2023-02-14T19:22:41.422Z,11.61
2023-02-14T19:25:10.461Z,11.64
2023-02-14T19:27:39.996Z,11.64
2023-02-14T19:30:10.836Z,11.63
2023-02-14T19:32:39.015Z,11.61
2023-02-14T19:35:07.875Z,11.59
2023-02-14T19:37:36.183Z,11.58
2023-02-14T19:40:06.518Z,11.57
2023-02-14T19:42:35.779Z,11.57
2023-02-14T19:45:05.535Z,11.59
2023-02-14T19:47:46.286Z,11.62
2023-02-14T19:50:16.110Z,11.63
2023-02-14T19:52:44.874Z,11.64
2023-02-14T19:55:20.979Z,11.68
2023-02-14T19:57:49.532Z,11.71
2023-02-14T20:00:18.569Z,11.75
2023-02-14T20:02:48.318Z,11.76
2023-02-14T20:05:20.087Z,11.79
2023-02-14T20:15:30.703Z,11.81
2023-02-14T20:18:02.689Z,11.76
2023-02-14T20:20:51.146Z,11.77
2023-02-14T20:23:19.905Z,11.84
2023-02-14T20:25:48.998Z,11.90
2023-02-14T20:28:18.515Z,11.94
2023-02-14T20:30:47.175Z,11.95
2023-02-14T20:33:16.002Z,11.96
2023-02-14T20:35:45.083Z,11.99
2023-02-14T20:38:15.203Z,12.03
2023-02-14T20:40:44.909Z,12.05
2023-02-14T20:43:14.506Z,12.04
2023-02-14T20:45:42.878Z,12.03
2023-02-14T20:48:11.188Z,12.03
2023-02-14T20:50:41.304Z,12.05
2023-02-14T20:53:09.779Z,12.06
2023-02-14T20:55:41.880Z,12.08
2023-02-14T20:58:14.412Z,12.09
2023-02-14T21:00:42.628Z,12.10
2023-02-14T21:03:10.981Z,12.10
2023-02-14T21:05:40.463Z,12.10
2023-02-14T21:08:08.872Z,12.12
2023-02-14T21:10:37.462Z,12.14
2023-02-14T21:13:05.831Z,12.11
2023-02-14T21:15:37.398Z,12.05
2023-02-14T21:18:06.166Z,11.97
2023-02-14T21:20:35.693Z,11.94
2023-02-14T21:23:04.678Z,11.92
2023-02-14T21:25:33.060Z,11.89
2023-02-14T21:28:02.783Z,11.83
2023-02-14T21:30:32.975Z,11.77
2023-02-14T21:33:04.176Z,11.73
2023-02-14T21:35:36.555Z,11.66
2023-02-14T21:38:06.081Z,11.62
2023-02-14T21:40:35.201Z,11.55
2023-02-14T21:43:03.996Z,11.49
2023-02-14T21:45:51.009Z,11.47
2023-02-14T21:48:38.019Z,11.49
2023-02-14T21:51:06.844Z,11.53
2023-02-14T21:53:35.365Z,11.52
2023-02-14T21:56:07.516Z,11.52
2023-02-14T21:58:35.523Z,11.51
2023-02-14T22:01:04.868Z,11.47
2023-02-14T22:03:33.503Z,11.42
2023-02-14T22:06:03.784Z,11.36
2023-02-14T22:08:32.156Z,11.29
2023-02-14T22:11:01.278Z,11.26
2023-02-14T22:13:29.632Z,11.27
2023-02-14T22:16:06.554Z,11.30
2023-02-14T22:18:35.248Z,11.35
2023-02-14T22:21:14.186Z,11.33
2023-02-14T22:23:42.322Z,11.30
2023-02-14T22:26:26.747Z,11.27
2023-02-14T22:29:00.316Z,11.29
2023-02-14T22:31:30.239Z,11.30
2023-02-14T22:33:58.562Z,11.32
2023-02-14T22:36:26.714Z,11.37
2023-02-14T22:38:54.897Z,11.43
2023-02-14T22:41:24.048Z,11.52
2023-02-14T22:43:53.001Z,11.59
2023-02-14T22:46:26.783Z,11.66
2023-02-14T22:48:55.491Z,11.72
2023-02-14T22:51:31.060Z,11.76
2023-02-14T22:54:07.448Z,11.83
2023-02-14T22:56:40.504Z,11.91
2023-02-14T22:59:15.260Z,12.00
2023-02-14T23:01:43.867Z,12.10
2023-02-14T23:04:12.128Z,12.13
2023-02-14T23:06:41.168Z,12.10
2023-02-14T23:09:09.900Z,12.06
2023-02-14T23:11:38.927Z,12.06
2023-02-14T23:14:25.609Z,12.07
2023-02-14T23:18:08.649Z,10.77
2023-02-14T23:20:56.571Z,11.88
2023-02-14T23:23:24.828Z,11.98
2023-02-14T23:25:53.201Z,12.04
2023-02-14T23:28:23.557Z,12.09
2023-02-14T23:30:52.061Z,12.11
2023-02-14T23:33:20.289Z,12.15
2023-02-14T23:35:48.637Z,12.19
2023-02-14T23:38:17.054Z,12.22
2023-02-14T23:41:03.819Z,12.24
2023-02-14T23:43:32.554Z,12.27
2023-02-14T23:46:01.706Z,12.30
2023-02-14T23:48:30.460Z,12.33
2023-02-14T23:51:01.016Z,12.35
2023-02-14T23:53:29.516Z,12.37
2023-02-14T23:56:02.811Z,12.38
2023-02-14T23:58:31.728Z,12.40
